createdAt,value
2018-10-02T00:00:04.305Z,99270.09
2018-10-02T00:00:35.407Z,99272.70
2018-10-02T00:01:06.557Z,99266.73
2018-10-02T00:01:37.680Z,99270.73
2018-10-02T00:02:08.820Z,99276.37
2018-10-02T00:02:39.975Z,99273.86
2018-10-02T00:03:11.076Z,99273.16
2018-10-02T00:03:42.185Z,99276.28
2018-10-02T00:04:13.300Z,99271.52
2018-10-02T00:04:44.393Z,99276.85
2018-10-02T00:05:15.502Z,99275.14
2018-10-02T00:05:46.614Z,99272.59
2018-10-02T00:06:17.733Z,99272.27
2018-10-02T00:06:48.840Z,99270.96
2018-10-02T00:07:19.977Z,99274.48
2018-10-02T00:07:51.111Z,99274.98
2018-10-02T00:08:22.210Z,99274.62
2018-10-02T00:08:53.340Z,99274.62
2018-10-02T00:09:24.477Z,99275.45
2018-10-02T00:09:55.569Z,99275.34
2018-10-02T00:10:26.680Z,99282.33
2018-10-02T00:10:57.794Z,99277.09
2018-10-02T00:11:28.930Z,99278.80
2018-10-02T00:12:00.033Z,99280.18
2018-10-02T00:12:31.149Z,99278.80
2018-10-02T00:13:02.246Z,99277.83
2018-10-02T00:13:33.347Z,99273.91
2018-10-02T00:14:04.501Z,99271.69
2018-10-02T00:14:35.616Z,99273.44
2018-10-02T00:15:06.769Z,99275.14
2018-10-02T00:15:37.911Z,99276.92
2018-10-02T00:16:09.028Z,99273.00
2018-10-02T00:16:40.176Z,99271.63
2018-10-02T00:17:11.332Z,99273.40
2018-10-02T00:17:42.444Z,99278.16
2018-10-02T00:18:13.542Z,99267.70
2018-10-02T00:18:44.645Z,99270.72
2018-10-02T00:19:15.755Z,99271.12
2018-10-02T00:19:46.856Z,99275.47
2018-10-02T00:20:18.022Z,99274.17
2018-10-02T00:20:49.123Z,99269.01
2018-10-02T00:21:20.278Z,99270.25
2018-10-02T00:21:51.387Z,99269.48
2018-10-02T00:22:22.557Z,99262.97
2018-10-02T00:22:53.649Z,99267.37
2018-10-02T00:23:24.770Z,99266.53
2018-10-02T00:23:55.892Z,99265.22
2018-10-02T00:24:26.997Z,99261.80
2018-10-02T00:24:58.104Z,99265.57
2018-10-02T00:25:29.262Z,99259.94
2018-10-02T00:26:00.418Z,99261.58
2018-10-02T00:26:31.525Z,99259.91
2018-10-02T00:27:02.673Z,99260.34
2018-10-02T00:27:33.789Z,99257.72
2018-10-02T00:28:04.935Z,99257.72
2018-10-02T00:28:36.051Z,99262.55
2018-10-02T00:29:07.162Z,99263.86
2018-10-02T00:29:38.294Z,99259.44
2018-10-02T00:30:09.453Z,99257.22
2018-10-02T00:30:40.634Z,99254.53
2018-10-02T00:31:11.749Z,99256.31
2018-10-02T00:31:42.894Z,99259.36
2018-10-02T00:32:14.137Z,99254.53
2018-10-02T00:32:45.196Z,99251.98
2018-10-02T00:33:16.320Z,99248.97
2018-10-02T00:33:47.439Z,99254.20
2018-10-02T00:34:18.545Z,99257.28
2018-10-02T00:34:49.653Z,99256.89
2018-10-02T00:35:20.746Z,99252.56
2018-10-02T00:35:51.893Z,99249.55
2018-10-02T00:36:23.024Z,99251.69
2018-10-02T00:36:54.122Z,99258.23
2018-10-02T00:37:25.253Z,99255.75
2018-10-02T00:37:56.402Z,99257.89
2018-10-02T00:38:27.503Z,99258.36
2018-10-02T00:38:58.635Z,99254.05
2018-10-02T00:39:29.765Z,99255.28
2018-10-02T00:40:00.857Z,99253.97
2018-10-02T00:40:31.977Z,99252.73
2018-10-02T00:41:03.086Z,99256.26
2018-10-02T00:41:34.217Z,99257.20
2018-10-02T00:42:05.406Z,99253.78
2018-10-02T00:42:36.625Z,99254.62
2018-10-02T00:43:07.750Z,99255.89
2018-10-02T00:43:38.855Z,99255.48
2018-10-02T00:44:09.962Z,99256.39
2018-10-02T00:44:41.105Z,99261.55
2018-10-02T00:45:12.219Z,99262.93
2018-10-02T00:45:43.335Z,99267.28
2018-10-02T00:46:14.439Z,99266.45
2018-10-02T00:46:45.581Z,99265.54
2018-10-02T00:47:16.700Z,99263.84
2018-10-02T00:47:47.810Z,99260.42
2018-10-02T00:48:18.913Z,99264.73
2018-10-02T00:48:50.030Z,99269.47
2018-10-02T00:49:21.122Z,99269.00
2018-10-02T00:49:52.270Z,99262.93
2018-10-02T00:50:23.368Z,99261.22
2018-10-02T00:50:54.514Z,99271.28
2018-10-02T00:51:25.633Z,99268.26
2018-10-02T00:51:56.743Z,99268.33
2018-10-02T00:52:27.863Z,99267.55
2018-10-02T00:52:59.025Z,99270.20
2018-10-02T00:53:30.166Z,99265.52
2018-10-02T00:54:01.279Z,99269.47
2018-10-02T00:54:32.390Z,99267.83
2018-10-02T00:55:03.490Z,99266.92
2018-10-02T00:55:34.637Z,99267.42
2018-10-02T00:56:05.767Z,99267.16
2018-10-02T00:56:36.894Z,99265.84
2018-10-02T00:57:07.994Z,99265.84
2018-10-02T00:57:39.087Z,99265.45
2018-10-02T00:58:10.197Z,99266.72
2018-10-02T00:58:41.309Z,99265.52
2018-10-02T00:59:12.431Z,99264.67
2018-10-02T00:59:43.583Z,99267.73
2018-10-02T01:00:14.704Z,99267.33
2018-10-02T01:00:45.837Z,99270.00
2018-10-02T01:01:16.955Z,99273.52
2018-10-02T01:01:48.054Z,99263.60
2018-10-02T01:02:19.176Z,99266.65
2018-10-02T01:02:50.314Z,99268.42
2018-10-02T01:03:21.463Z,99267.52
2018-10-02T01:03:52.569Z,99265.31
2018-10-02T01:04:23.686Z,99265.31
2018-10-02T01:04:54.815Z,99267.92
2018-10-02T01:05:26.098Z,99263.88
2018-10-02T01:05:57.207Z,99268.20
2018-10-02T01:06:28.339Z,99261.59
2018-10-02T01:06:59.492Z,99265.91
2018-10-02T01:07:30.621Z,99268.13
2018-10-02T01:08:01.731Z,99264.20
2018-10-02T01:08:32.835Z,99263.37
2018-10-02T01:09:03.936Z,99265.52
2018-10-02T01:09:35.039Z,99263.64
2018-10-02T01:10:06.180Z,99265.34
2018-10-02T01:10:37.337Z,99268.73
2018-10-02T01:11:08.442Z,99263.41
2018-10-02T01:11:39.577Z,99265.61
2018-10-02T01:12:10.678Z,99267.39
2018-10-02T01:12:41.798Z,99266.48
2018-10-02T01:13:12.959Z,99263.13
2018-10-02T01:13:44.068Z,99263.64
2018-10-02T01:14:15.213Z,99262.83
2018-10-02T01:14:46.425Z,99260.22
2018-10-02T01:15:17.546Z,99265.08
2018-10-02T01:15:48.663Z,99260.69
2018-10-02T01:16:19.816Z,99262.00
2018-10-02T01:16:50.922Z,99262.00
2018-10-02T01:17:22.018Z,99265.08
2018-10-02T01:17:53.137Z,99261.59
2018-10-02T01:18:24.243Z,99262.90
2018-10-02T01:18:55.393Z,99263.37
2018-10-02T01:19:26.526Z,99265.52
2018-10-02T01:19:57.647Z,99261.33
2018-10-02T01:20:28.754Z,99260.45
2018-10-02T01:20:59.929Z,99257.84
2018-10-02T01:21:31.027Z,99260.45
2018-10-02T01:22:02.158Z,99261.39
2018-10-02T01:22:33.261Z,99265.68
2018-10-02T01:23:04.376Z,99265.75
2018-10-02T01:23:35.503Z,99266.22
2018-10-02T01:24:06.662Z,99267.13
2018-10-02T01:24:37.771Z,99267.52
2018-10-02T01:25:08.888Z,99265.81
2018-10-02T01:25:39.994Z,99263.60
2018-10-02T01:26:11.105Z,99267.52
2018-10-02T01:26:42.233Z,99264.03
2018-10-02T01:27:13.352Z,99263.27
2018-10-02T01:27:44.516Z,99259.28
2018-10-02T01:28:15.618Z,99262.23
2018-10-02T01:28:46.762Z,99258.78
2018-10-02T01:29:17.927Z,99264.00
2018-10-02T01:29:49.038Z,99259.69
2018-10-02T01:30:20.185Z,99257.91
2018-10-02T01:30:51.315Z,99257.91
2018-10-02T01:31:22.424Z,99257.84
2018-10-02T01:31:53.549Z,99260.45
2018-10-02T01:32:24.686Z,99260.02
2018-10-02T01:32:55.795Z,99257.84
2018-10-02T01:33:26.904Z,99261.26
2018-10-02T01:33:58.054Z,99264.67
2018-10-02T01:34:29.202Z,99261.16
2018-10-02T01:35:00.348Z,99257.67
2018-10-02T01:35:31.489Z,99261.16
2018-10-02T01:36:02.614Z,99264.14
2018-10-02T01:36:33.752Z,99260.22
2018-10-02T01:37:04.863Z,99261.53
2018-10-02T01:37:35.985Z,99262.33
2018-10-02T01:38:07.102Z,99261.93
2018-10-02T01:38:38.215Z,99270.64
2018-10-02T01:39:09.318Z,99269.27
2018-10-02T01:39:40.484Z,99265.34
2018-10-02T01:40:11.618Z,99265.34
2018-10-02T01:40:42.732Z,99268.87
2018-10-02T01:41:13.857Z,99265.78
2018-10-02T01:41:44.961Z,99224.06
2018-10-02T01:42:16.089Z,99267.09
2018-10-02T01:42:47.206Z,99269.61
2018-10-02T01:43:18.362Z,99269.67
2018-10-02T01:43:49.502Z,99274.09
2018-10-02T01:44:20.625Z,99270.67
2018-10-02T01:44:51.812Z,99267.29
2018-10-02T01:45:23.254Z,99269.50
2018-10-02T01:45:54.380Z,99272.22
2018-10-02T01:46:25.483Z,99272.68
2018-10-02T01:46:56.588Z,99275.70
2018-10-02T01:47:27.699Z,99271.72
2018-10-02T01:47:58.801Z,99273.42
2018-10-02T01:48:29.921Z,99276.03
2018-10-02T01:49:01.062Z,99277.78
2018-10-02T01:49:32.166Z,99277.74
2018-10-02T01:50:03.333Z,99271.21
2018-10-02T01:50:34.485Z,99271.64
2018-10-02T01:51:05.641Z,99275.13
2018-10-02T01:51:36.751Z,99272.52
2018-10-02T01:52:07.868Z,99274.66
2018-10-02T01:52:39.035Z,99276.47
2018-10-02T01:53:10.151Z,99280.86
2018-10-02T01:53:41.253Z,99280.45
2018-10-02T01:54:12.354Z,99281.77
2018-10-02T01:54:43.448Z,99289.20
2018-10-02T01:55:14.559Z,99282.73
2018-10-02T01:55:45.661Z,99282.33
2018-10-02T01:56:16.863Z,99279.28
2018-10-02T01:56:47.978Z,99278.88
2018-10-02T01:57:19.069Z,99283.70
2018-10-02T01:57:50.193Z,99281.56
2018-10-02T01:58:21.344Z,99284.17
2018-10-02T01:58:52.473Z,99279.38
2018-10-02T01:59:23.586Z,99285.14
2018-10-02T01:59:54.694Z,99286.05
2018-10-02T02:00:25.807Z,99285.23
2018-10-02T02:00:56.947Z,99280.02
2018-10-02T02:01:28.077Z,99286.95
2018-10-02T02:01:59.186Z,99284.34
2018-10-02T02:02:30.362Z,99289.97
2018-10-02T02:03:01.467Z,99288.66
2018-10-02T02:03:32.590Z,99288.25
2018-10-02T02:04:03.710Z,99291.27
2018-10-02T02:04:34.810Z,99287.02
2018-10-02T02:05:05.927Z,99287.98
2018-10-02T02:05:37.126Z,99285.37
2018-10-02T02:06:08.252Z,99286.34
2018-10-02T02:06:39.369Z,99285.47
2018-10-02T02:07:10.485Z,99289.38
2018-10-02T02:07:41.678Z,99286.00
2018-10-02T02:08:12.801Z,99285.47
2018-10-02T02:08:43.910Z,99284.44
2018-10-02T02:09:15.019Z,99288.25
2018-10-02T02:09:46.164Z,99286.05
2018-10-02T02:10:17.276Z,99286.55
2018-10-02T02:10:48.401Z,99286.14
2018-10-02T02:11:19.504Z,99285.30
2018-10-02T02:11:50.614Z,99286.67
2018-10-02T02:12:21.722Z,99285.80
2018-10-02T02:12:52.864Z,99286.34
2018-10-02T02:13:23.976Z,99285.94
2018-10-02T02:13:55.072Z,99280.30
2018-10-02T02:14:26.179Z,99282.58
2018-10-02T02:14:57.287Z,99278.66
2018-10-02T02:15:28.401Z,99280.37
2018-10-02T02:15:59.516Z,99278.66
2018-10-02T02:16:30.628Z,99276.95
2018-10-02T02:17:01.744Z,99279.56
2018-10-02T02:17:32.895Z,99279.16
2018-10-02T02:18:04.035Z,99283.08
2018-10-02T02:18:35.178Z,99278.32
2018-10-02T02:19:06.304Z,99280.03
2018-10-02T02:19:37.403Z,99281.00
2018-10-02T02:20:08.549Z,99276.61
2018-10-02T02:20:39.647Z,99282.67
2018-10-02T02:21:10.764Z,99284.05
2018-10-02T02:21:41.901Z,99280.59
2018-10-02T02:22:13.006Z,99283.64
2018-10-02T02:22:44.125Z,99284.05
2018-10-02T02:23:15.286Z,99278.48
2018-10-02T02:23:46.393Z,99280.25
2018-10-02T02:24:17.514Z,99280.25
2018-10-02T02:24:48.667Z,99284.20
2018-10-02T02:25:19.789Z,99277.67
2018-10-02T02:25:50.908Z,99282.87
2018-10-02T02:26:22.028Z,99281.50
2018-10-02T02:26:53.137Z,99281.91
2018-10-02T02:27:24.242Z,99285.82
2018-10-02T02:27:55.363Z,99286.72
2018-10-02T02:28:26.510Z,99291.88
2018-10-02T02:28:57.640Z,99281.91
2018-10-02T02:29:28.758Z,99286.66
2018-10-02T02:29:59.861Z,99286.25
2018-10-02T02:30:30.979Z,99288.43
2018-10-02T02:31:02.110Z,99288.03
2018-10-02T02:31:33.221Z,99291.05
2018-10-02T02:32:04.332Z,99290.17
2018-10-02T02:32:35.430Z,99294.56
2018-10-02T02:33:06.566Z,99290.64
2018-10-02T02:33:37.679Z,99292.02
2018-10-02T02:34:08.789Z,99295.53
2018-10-02T02:34:39.940Z,99291.27
2018-10-02T02:35:11.071Z,99295.19
2018-10-02T02:35:42.190Z,99288.75
2018-10-02T02:36:13.290Z,99291.36
2018-10-02T02:36:44.393Z,99295.69
2018-10-02T02:37:15.504Z,99288.88
2018-10-02T02:37:46.646Z,99295.81
2018-10-02T02:38:17.774Z,99288.34
2018-10-02T02:38:48.894Z,99293.14
2018-10-02T02:39:19.998Z,99300.01
2018-10-02T02:39:51.114Z,99294.28
2018-10-02T02:40:22.237Z,99297.33
2018-10-02T02:40:53.400Z,99295.59
2018-10-02T02:41:24.562Z,99293.35
2018-10-02T02:41:55.744Z,99300.28
2018-10-02T02:42:26.866Z,99293.72
2018-10-02T02:42:57.988Z,99293.25
2018-10-02T02:43:29.095Z,99298.34
2018-10-02T02:44:00.222Z,99296.27
2018-10-02T02:44:31.334Z,99301.84
2018-10-02T02:45:02.438Z,99301.77
2018-10-02T02:45:33.606Z,99302.23
2018-10-02T02:46:04.712Z,99300.96
2018-10-02T02:46:35.830Z,99296.14
2018-10-02T02:47:06.965Z,99304.79
2018-10-02T02:47:38.086Z,99297.85
2018-10-02T02:48:09.221Z,99299.97
2018-10-02T02:48:40.324Z,99294.74
2018-10-02T02:49:11.482Z,99298.66
2018-10-02T02:49:42.607Z,99300.30
2018-10-02T02:50:13.733Z,99300.70
2018-10-02T02:50:44.870Z,99297.56
2018-10-02T02:51:16.033Z,99301.88
2018-10-02T02:51:47.127Z,99300.52
2018-10-02T02:52:18.238Z,99302.29
2018-10-02T02:52:49.346Z,99304.03
2018-10-02T02:53:20.470Z,99302.72
2018-10-02T02:53:51.575Z,99303.12
2018-10-02T02:54:22.683Z,99305.30
2018-10-02T02:54:53.817Z,99310.06
2018-10-02T02:55:24.936Z,99305.73
2018-10-02T02:55:56.052Z,99307.02
2018-10-02T02:56:27.231Z,99308.33
2018-10-02T02:56:58.360Z,99311.77
2018-10-02T02:57:29.457Z,99306.88
2018-10-02T02:58:00.560Z,99312.92
2018-10-02T02:58:31.676Z,99307.63
2018-10-02T02:59:02.777Z,99307.69
2018-10-02T02:59:33.882Z,99310.71
2018-10-02T03:00:04.985Z,99309.41
2018-10-02T03:00:36.096Z,99311.08
2018-10-02T03:01:07.192Z,99312.86
2018-10-02T03:01:38.340Z,99313.32
2018-10-02T03:02:09.451Z,99313.76
2018-10-02T03:02:40.573Z,99316.30
2018-10-02T03:03:11.684Z,99312.86
2018-10-02T03:03:42.781Z,99312.79
2018-10-02T03:04:13.889Z,99311.95
2018-10-02T03:04:45.033Z,99312.72
2018-10-02T03:05:16.136Z,99311.05
2018-10-02T03:05:47.262Z,99310.11
2018-10-02T03:06:18.429Z,99313.13
2018-10-02T03:06:49.541Z,99314.03
2018-10-02T03:07:20.637Z,99310.98
2018-10-02T03:07:51.733Z,99310.11
2018-10-02T03:08:22.867Z,99310.98
2018-10-02T03:08:53.975Z,99316.70
2018-10-02T03:09:25.151Z,99314.56
2018-10-02T03:09:56.247Z,99319.79
2018-10-02T03:10:27.358Z,99313.26
2018-10-02T03:10:58.477Z,99315.34
2018-10-02T03:11:29.588Z,99316.27
2018-10-02T03:12:00.705Z,99314.50
2018-10-02T03:12:31.835Z,99312.72
2018-10-02T03:13:02.994Z,99310.11
2018-10-02T03:13:34.131Z,99310.11
2018-10-02T03:14:05.228Z,99317.92
2018-10-02T03:14:36.332Z,99316.98
2018-10-02T03:15:07.474Z,99312.69
2018-10-02T03:15:38.594Z,99317.45
2018-10-02T03:16:09.686Z,99317.85
2018-10-02T03:16:40.837Z,99313.47
2018-10-02T03:17:11.972Z,99316.95
2018-10-02T03:17:43.088Z,99316.48
2018-10-02T03:18:14.202Z,99320.41
2018-10-02T03:18:45.309Z,99319.97
2018-10-02T03:19:16.395Z,99322.95
2018-10-02T03:19:47.506Z,99322.45
2018-10-02T03:20:18.658Z,99321.14
2018-10-02T03:20:49.770Z,99323.75
2018-10-02T03:21:20.891Z,99322.85
2018-10-02T03:21:52.192Z,99324.09
2018-10-02T03:22:23.184Z,99324.16
2018-10-02T03:22:54.303Z,99325.47
2018-10-02T03:23:25.438Z,99328.08
2018-10-02T03:23:56.548Z,99325.87
2018-10-02T03:24:27.643Z,99331.03
2018-10-02T03:24:58.739Z,99329.25
2018-10-02T03:25:29.899Z,99330.56
2018-10-02T03:26:01.026Z,99329.59
2018-10-02T03:26:32.140Z,99331.37
2018-10-02T03:27:03.258Z,99336.53
2018-10-02T03:27:34.361Z,99334.79
2018-10-02T03:28:05.473Z,99336.47
2018-10-02T03:28:36.589Z,99336.44
2018-10-02T03:29:07.731Z,99335.56
2018-10-02T03:29:38.831Z,99336.44
2018-10-02T03:30:09.935Z,99341.59
2018-10-02T03:30:41.073Z,99347.63
2018-10-02T03:31:12.184Z,99339.79
2018-10-02T03:31:43.286Z,99337.17
2018-10-02T03:32:14.387Z,99345.02
2018-10-02T03:32:45.515Z,99339.79
2018-10-02T03:33:16.619Z,99345.02
2018-10-02T03:33:47.761Z,99342.41
2018-10-02T03:34:18.873Z,99341.47
2018-10-02T03:34:49.993Z,99342.41
2018-10-02T03:35:21.100Z,99339.79
2018-10-02T03:35:52.226Z,99345.02
2018-10-02T03:36:23.379Z,99342.77
2018-10-02T03:36:54.512Z,99344.55
2018-10-02T03:37:25.635Z,99345.39
2018-10-02T03:37:56.760Z,99344.55
2018-10-02T03:38:27.941Z,99345.80
2018-10-02T03:38:59.068Z,99341.47
2018-10-02T03:39:30.268Z,99344.05
2018-10-02T03:40:01.354Z,99342.27
2018-10-02T03:40:32.460Z,99333.92
2018-10-02T03:41:03.586Z,99345.56
2018-10-02T03:41:34.707Z,99339.16
2018-10-02T03:42:05.844Z,99147.09
2018-10-02T03:42:37.033Z,99343.84
2018-10-02T03:43:08.159Z,99345.56
2018-10-02T03:43:39.295Z,99346.36
2018-10-02T03:44:10.421Z,99348.45
2018-10-02T03:44:41.526Z,99350.63
2018-10-02T03:45:12.641Z,99351.06
2018-10-02T03:45:43.799Z,99352.43
2018-10-02T03:46:14.894Z,99345.06
2018-10-02T03:46:45.990Z,99348.08
2018-10-02T03:47:17.101Z,99352.84
2018-10-02T03:47:48.204Z,99351.86
2018-10-02T03:48:19.304Z,99353.58
2018-10-02T03:48:50.509Z,99354.88
2018-10-02T03:49:21.620Z,99350.83
2018-10-02T03:49:52.731Z,99349.92
2018-10-02T03:50:23.855Z,99346.91
2018-10-02T03:50:54.953Z,99349.92
2018-10-02T03:51:26.093Z,99346.06
2018-10-02T03:51:57.219Z,99349.02
2018-10-02T03:52:28.333Z,99349.92
2018-10-02T03:52:59.437Z,99346.53
2018-10-02T03:53:30.601Z,99353.84
2018-10-02T03:54:01.730Z,99350.05
2018-10-02T03:54:32.872Z,99349.66
2018-10-02T03:55:04.002Z,99343.92
2018-10-02T03:55:35.118Z,99340.91
2018-10-02T03:56:06.235Z,99346.13
2018-10-02T03:56:37.330Z,99343.52
2018-10-02T03:57:08.444Z,99349.15
2018-10-02T03:57:39.555Z,99342.61
2018-10-02T03:58:10.726Z,99345.66
2018-10-02T03:58:41.856Z,99345.33
2018-10-02T03:59:12.965Z,99348.91
2018-10-02T03:59:44.093Z,99346.77
2018-10-02T04:00:15.254Z,99348.98
2018-10-02T04:00:46.383Z,99342.04
2018-10-02T04:01:17.485Z,99347.67
2018-10-02T04:01:48.603Z,99348.58
2018-10-02T04:02:19.713Z,99350.28
2018-10-02T04:02:50.873Z,99349.48
2018-10-02T04:03:22.133Z,99349.05
2018-10-02T04:03:53.207Z,99349.38
2018-10-02T04:04:24.335Z,99346.80
2018-10-02T04:04:55.490Z,99347.27
2018-10-02T04:05:26.591Z,99344.59
2018-10-02T04:05:57.726Z,99345.33
2018-10-02T04:06:28.821Z,99349.66
2018-10-02T04:06:59.956Z,99347.88
2018-10-02T04:07:31.092Z,99348.75
2018-10-02T04:08:02.215Z,99348.34
2018-10-02T04:08:33.353Z,99349.19
2018-10-02T04:09:04.450Z,99352.27
2018-10-02T04:09:35.599Z,99353.58
2018-10-02T04:10:06.711Z,99350.55
2018-10-02T04:10:37.897Z,99354.95
2018-10-02T04:11:09.015Z,99355.92
2018-10-02T04:11:40.132Z,99353.74
2018-10-02T04:12:11.238Z,99357.27
2018-10-02T04:12:42.345Z,99356.02
2018-10-02T04:13:13.530Z,99354.78
2018-10-02T04:13:44.594Z,99358.77
2018-10-02T04:14:15.706Z,99360.51
2018-10-02T04:14:46.832Z,99358.36
2018-10-02T04:15:17.957Z,99363.59
2018-10-02T04:15:49.101Z,99368.32
2018-10-02T04:16:20.197Z,99365.30
2018-10-02T04:16:51.306Z,99366.61
2018-10-02T04:17:22.440Z,99367.11
2018-10-02T04:17:53.537Z,99370.20
2018-10-02T04:18:24.633Z,99368.02
2018-10-02T04:18:55.758Z,99370.23
2018-10-02T04:19:26.854Z,99372.00
2018-10-02T04:19:57.989Z,99371.66
2018-10-02T04:20:29.127Z,99374.75
2018-10-02T04:21:00.268Z,99368.71
2018-10-02T04:21:31.387Z,99372.16
2018-10-02T04:22:02.507Z,99369.95
2018-10-02T04:22:33.633Z,99375.65
2018-10-02T04:23:04.741Z,99372.16
2018-10-02T04:23:35.845Z,99369.05
2018-10-02T04:24:06.950Z,99374.68
2018-10-02T04:24:38.105Z,99372.91
2018-10-02T04:25:09.230Z,99368.55
2018-10-02T04:25:40.387Z,98601.65
2018-10-02T04:26:11.523Z,99367.17
2018-10-02T04:26:42.648Z,99373.78
2018-10-02T04:27:13.781Z,99371.94
2018-10-02T04:27:44.937Z,99365.80
2018-10-02T04:28:16.117Z,99361.38
2018-10-02T04:28:47.209Z,99363.03
2018-10-02T04:29:18.373Z,99356.83
2018-10-02T04:29:49.477Z,99364.44
2018-10-02T04:30:20.595Z,99357.27
2018-10-02T04:30:51.749Z,99355.72
2018-10-02T04:31:22.855Z,99355.92
2018-10-02T04:31:54.019Z,99361.39
2018-10-02T04:32:25.145Z,99355.66
2018-10-02T04:32:56.293Z,99360.25
2018-10-02T04:33:27.408Z,99363.96
2018-10-02T04:33:58.609Z,99367.31
2018-10-02T04:34:29.709Z,99368.72
2018-10-02T04:35:00.841Z,99363.73
2018-10-02T04:35:31.954Z,99370.77
2018-10-02T04:36:03.101Z,99370.59
2018-10-02T04:36:34.216Z,99372.02
2018-10-02T04:37:05.347Z,99372.17
2018-10-02T04:37:36.456Z,99370.11
2018-10-02T04:38:07.565Z,99376.26
2018-10-02T04:38:38.688Z,99374.58
2018-10-02T04:39:09.881Z,99372.07
2018-10-02T04:39:41.017Z,99371.41
2018-10-02T04:40:12.125Z,99372.86
2018-10-02T04:40:43.219Z,99374.30
2018-10-02T04:41:14.318Z,99373.05
2018-10-02T04:41:45.432Z,99373.11
2018-10-02T04:42:16.561Z,99365.70
2018-10-02T04:42:47.678Z,99364.56
2018-10-02T04:43:18.820Z,99372.59
2018-10-02T04:43:49.924Z,99373.94
2018-10-02T04:44:21.045Z,99374.30
2018-10-02T04:44:52.171Z,99378.11
2018-10-02T04:45:23.270Z,99376.72
2018-10-02T04:45:54.379Z,99372.71
2018-10-02T04:46:25.520Z,99371.59
2018-10-02T04:46:56.677Z,99374.86
2018-10-02T04:47:27.806Z,99375.58
2018-10-02T04:47:58.955Z,99374.34
2018-10-02T04:48:30.071Z,99371.92
2018-10-02T04:49:01.208Z,99377.48
2018-10-02T04:49:32.306Z,99370.77
2018-10-02T04:50:03.441Z,99371.33
2018-10-02T04:50:34.577Z,99370.84
2018-10-02T04:51:05.766Z,99374.86
2018-10-02T04:51:36.873Z,99376.53
2018-10-02T04:52:07.981Z,99380.27
2018-10-02T04:52:39.118Z,99370.05
2018-10-02T04:53:10.220Z,99377.25
2018-10-02T04:53:41.352Z,99373.98
2018-10-02T04:54:12.479Z,99377.92
2018-10-02T04:54:43.582Z,99375.94
2018-10-02T04:55:14.743Z,99373.94
2018-10-02T04:55:45.921Z,99376.37
2018-10-02T04:56:17.074Z,99376.84
2018-10-02T04:56:48.209Z,99377.34
2018-10-02T04:57:19.319Z,99383.02
2018-10-02T04:57:50.417Z,99384.41
2018-10-02T04:58:21.526Z,99383.75
2018-10-02T04:58:52.631Z,99386.45
2018-10-02T04:59:23.754Z,99383.84
2018-10-02T04:59:54.861Z,99387.97
2018-10-02T05:00:26.016Z,99384.66
2018-10-02T05:00:57.131Z,99386.05
2018-10-02T05:01:28.291Z,99391.05
2018-10-02T05:01:59.414Z,99380.80
2018-10-02T05:02:30.525Z,99386.19
2018-10-02T05:03:01.658Z,99385.19
2018-10-02T05:03:32.776Z,99384.70
2018-10-02T05:04:03.904Z,99387.88
2018-10-02T05:04:35.027Z,99383.80
2018-10-02T05:05:06.207Z,99385.42
2018-10-02T05:05:37.317Z,99379.69
2018-10-02T05:06:08.426Z,99380.08
2018-10-02T05:06:39.545Z,99380.16
2018-10-02T05:07:10.768Z,99389.36
2018-10-02T05:07:41.882Z,99386.73
2018-10-02T05:08:13.003Z,99385.50
2018-10-02T05:08:44.152Z,99390.89
2018-10-02T05:09:15.260Z,99390.50
2018-10-02T05:09:46.452Z,99397.16
2018-10-02T05:10:17.641Z,99393.42
2018-10-02T05:10:48.752Z,99395.83
2018-10-02T05:11:19.871Z,99399.85
2018-10-02T05:11:50.984Z,99397.09
2018-10-02T05:12:22.091Z,99397.00
2018-10-02T05:12:53.204Z,99394.66
2018-10-02T05:13:24.314Z,99396.66
2018-10-02T05:13:55.447Z,99392.18
2018-10-02T05:14:26.570Z,99396.33
2018-10-02T05:14:57.717Z,99393.08
2018-10-02T05:15:28.872Z,99397.41
2018-10-02T05:16:00.008Z,99394.99
2018-10-02T05:16:31.148Z,99393.76
2018-10-02T05:17:02.249Z,99394.47
2018-10-02T05:17:33.344Z,99440.81
2018-10-02T05:18:04.508Z,99392.55
2018-10-02T05:18:35.665Z,99392.63
2018-10-02T05:19:06.806Z,99398.16
2018-10-02T05:19:37.932Z,99400.80
2018-10-02T05:20:09.034Z,99399.59
2018-10-02T05:20:40.239Z,99404.71
2018-10-02T05:21:11.335Z,99405.42
2018-10-02T05:21:42.455Z,99405.33
2018-10-02T05:22:13.555Z,99409.38
2018-10-02T05:22:44.667Z,99407.89
2018-10-02T05:23:15.798Z,99408.90
2018-10-02T05:23:46.909Z,99409.69
2018-10-02T05:24:18.016Z,99413.86
2018-10-02T05:24:49.124Z,99410.70
2018-10-02T05:25:20.235Z,99412.72
2018-10-02T05:25:51.382Z,99405.53
2018-10-02T05:26:22.534Z,99407.98
2018-10-02T05:26:53.627Z,99407.63
2018-10-02T05:27:24.828Z,99410.88
2018-10-02T05:27:55.899Z,99411.57
2018-10-02T05:28:27.014Z,99413.02
2018-10-02T05:28:58.112Z,99409.91
2018-10-02T05:29:29.270Z,99412.54
2018-10-02T05:30:00.384Z,99415.17
2018-10-02T05:30:31.495Z,99408.94
2018-10-02T05:31:02.614Z,99407.62
2018-10-02T05:31:33.786Z,99410.16
2018-10-02T05:32:04.908Z,99416.52
2018-10-02T05:32:36.026Z,99414.10
2018-10-02T05:33:07.180Z,99413.17
2018-10-02T05:33:38.372Z,99415.55
2018-10-02T05:34:09.463Z,99421.20
2018-10-02T05:34:40.620Z,99415.41
2018-10-02T05:35:11.899Z,99422.37
2018-10-02T05:35:42.890Z,99423.13
2018-10-02T05:36:13.993Z,99424.83
2018-10-02T05:36:45.142Z,99421.66
2018-10-02T05:37:16.241Z,99424.30
2018-10-02T05:37:47.368Z,99426.36
2018-10-02T05:38:18.473Z,99428.77
2018-10-02T05:38:49.589Z,99427.07
2018-10-02T05:39:20.682Z,99425.00
2018-10-02T05:39:51.842Z,99432.28
2018-10-02T05:40:22.970Z,99425.02
2018-10-02T05:40:54.093Z,99426.95
2018-10-02T05:41:25.207Z,99432.73
2018-10-02T05:41:56.344Z,99427.09
2018-10-02T05:42:27.473Z,99423.70
2018-10-02T05:42:58.568Z,99431.20
2018-10-02T05:43:29.695Z,99433.45
2018-10-02T05:44:00.805Z,99433.45
2018-10-02T05:44:31.922Z,99435.54
2018-10-02T05:45:03.024Z,99439.23
2018-10-02T05:45:34.160Z,99440.02
2018-10-02T05:46:05.277Z,99434.66
2018-10-02T05:46:36.387Z,99438.52
2018-10-02T05:47:07.507Z,99441.50
2018-10-02T05:47:38.669Z,99445.80
2018-10-02T05:48:09.771Z,99443.17
2018-10-02T05:48:40.902Z,99449.12
2018-10-02T05:49:12.016Z,99445.48
2018-10-02T05:49:43.137Z,99449.38
2018-10-02T05:50:14.244Z,99448.81
2018-10-02T05:50:45.360Z,99412.00
2018-10-02T05:51:16.484Z,99449.19
2018-10-02T05:51:48.685Z,99446.95
2018-10-02T05:52:19.855Z,99455.48
2018-10-02T05:52:50.989Z,99451.75
2018-10-02T05:53:22.088Z,99445.42
2018-10-02T05:53:53.197Z,99444.41
2018-10-02T05:54:24.313Z,99445.09
2018-10-02T05:54:55.462Z,99452.03
2018-10-02T05:55:26.573Z,99444.44
2018-10-02T05:55:57.708Z,99450.05
2018-10-02T05:56:28.840Z,99449.47
2018-10-02T05:56:59.978Z,99450.08
2018-10-02T05:57:31.082Z,99450.32
2018-10-02T05:58:02.273Z,99454.30
2018-10-02T05:58:33.379Z,99456.78
2018-10-02T05:59:04.487Z,99455.23
2018-10-02T05:59:35.600Z,99461.78
2018-10-02T06:00:06.708Z,99459.95
2018-10-02T06:00:37.892Z,99464.50
2018-10-02T06:01:09.006Z,99462.30
2018-10-02T06:01:40.138Z,99461.19
2018-10-02T06:02:11.294Z,99460.95
2018-10-02T06:02:42.415Z,99463.49
2018-10-02T06:03:13.600Z,99128.01
2018-10-02T06:03:44.786Z,99459.00
2018-10-02T06:04:15.888Z,99458.42
2018-10-02T06:04:47.006Z,99460.52
2018-10-02T06:05:18.155Z,99461.29